Springfield, Colorado
Current Conditions -  °F | °C
As of 4:53 AM on Monday 20 Oct 2014 (Local Time) from KLAA Reporting Station
NA  
Wind Chill: 35°   Ceiling: NA
Heat Index: 39°   Visibility: 10mi
Dew Point: 37°   Wind: 6mph
Humidity: 93%   Direction: 220°SW
Pressure: 30.11"   Gusts: NA
Location:  37.41°N, 102.61°W
Report Text: KLAA 201053Z AUTO 22005KT 10SM 04/03 A3011 RMK AO2 SLP168 T00390028 $
Loading
Personal Weather Stations






























Interactive Weather Map
Tropical Storm Tracking
New forecast layout! Learn more

10-Day Weather Forecast

Advertisements
Track Severe Weather on mobile